Time;durP1;ratioP1;P1;durP2;ratioP2;P2;SDS_P1;SDS_P2;PMS_P1;PMS_P2;Temp;Humidity;BMP_temperature;BMP_pressure;BME280_temperature;BME280_humidity;BME280_pressure;Samples;Min_cycle;Max_cycle;Signal;HPM_P1;HPM_P2
2021/12/11 00:00:28;;;;;;;55.22;25.75;;;;;;;;;;6244724;28;20129;-72
2021/12/11 00:03:45;;;;;;;48.88;24.55;;;;;;;;;;6243500;28;20139;-70
2021/12/11 00:06:51;;;;;;;55.10;27.50;;;;;;;;;;6244799;28;20121;-72
2021/12/11 00:09:56;;;;;;;57.55;28.88;;;;;;;;;;6243561;28;20123;-73
2021/12/11 00:13:05;;;;;;;51.65;25.40;;;;;;;;;;6244491;28;20515;-71
2021/12/11 00:16:11;;;;;;;44.25;23.35;;;;;;;;;;6244261;28;20545;-72
2021/12/11 00:19:16;;;;;;;53.13;26.85;;;;;;;;;;6689188;23;20342;-67
2021/12/11 00:22:21;;;;;;;52.20;24.90;;;;;;;;;;6243211;28;20041;-66
2021/12/11 00:25:25;;;;;;;51.00;23.70;;;;;;;;;;6248742;28;20760;-66
2021/12/11 00:28:29;;;;;;;49.45;24.40;;;;;;;;;;6250088;28;20046;-67
2021/12/11 00:31:37;;;;;;;51.53;25.75;;;;;;;;;;6231678;28;20188;-66
2021/12/11 00:34:46;;;;;;;54.38;27.17;;;;;;;;;;6248661;28;20053;-66
2021/12/11 00:38:03;;;;;;;50.38;26.15;;;;;;;;;;6250496;28;20372;-67
2021/12/11 00:41:33;;;;;;;51.92;24.70;;;;;;;;;;6249960;28;20050;-64
2021/12/11 00:44:54;;;;;;;52.30;25.42;;;;;;;;;;6247654;28;20473;-66
2021/12/11 00:48:06;;;;;;;51.30;24.17;;;;;;;;;;6248503;28;20041;-66
2021/12/11 00:51:11;;;;;;;49.17;24.45;;;;;;;;;;6248877;28;20523;-65
2021/12/11 00:54:17;;;;;;;47.92;24.17;;;;;;;;;;6249312;28;20049;-64
2021/12/11 00:57:25;;;;;;;47.30;23.70;;;;;;;;;;6248945;28;20053;-64
2021/12/11 01:00:34;;;;;;;48.85;22.90;;;;;;;;;;6248099;28;20052;-65
2021/12/11 01:03:40;;;;;;;48.17;23.77;;;;;;;;;;6249434;28;20044;-64
2021/12/11 01:06:49;;;;;;;51.45;24.58;;;;;;;;;;6248188;28;20048;-64
2021/12/11 01:09:54;;;;;;;47.65;23.75;;;;;;;;;;6248074;28;20057;-65
2021/12/11 01:13:02;;;;;;;50.95;25.38;;;;;;;;;;6246993;28;20057;-65
2021/12/11 01:16:12;;;;;;;49.20;24.67;;;;;;;;;;6247776;28;20052;-64
2021/12/11 01:19:17;;;;;;;54.97;24.30;;;;;;;;;;6247980;28;20045;-65
2021/12/11 01:22:32;;;;;;;44.85;22.83;;;;;;;;;;6247578;28;20049;-65
2021/12/11 01:25:36;;;;;;;45.10;21.95;;;;;;;;;;6247930;28;20060;-65
2021/12/11 01:28:42;;;;;;;47.45;22.90;;;;;;;;;;6248202;28;20053;-65
2021/12/11 01:31:48;;;;;;;49.28;22.10;;;;;;;;;;6247159;28;20056;-65
2021/12/11 01:34:53;;;;;;;46.17;22.52;;;;;;;;;;6248232;28;20052;-65
2021/12/11 01:38:00;;;;;;;48.25;21.38;;;;;;;;;;6248536;28;20084;-66
2021/12/11 01:41:07;;;;;;;46.38;22.13;;;;;;;;;;6247738;28;20048;-65
2021/12/11 01:44:12;;;;;;;45.40;22.30;;;;;;;;;;6248486;28;20049;-65
2021/12/11 01:47:19;;;;;;;51.53;22.47;;;;;;;;;;6248600;28;20227;-65
2021/12/11 01:50:24;;;;;;;45.47;20.95;;;;;;;;;;6246496;28;20419;-65
2021/12/11 01:53:30;;;;;;;52.92;22.05;;;;;;;;;;6246662;28;20125;-65
2021/12/11 01:56:34;;;;;;;48.38;22.35;;;;;;;;;;6247023;28;20132;-65
2021/12/11 01:59:39;;;;;;;45.22;20.40;;;;;;;;;;6248190;28;20052;-65
2021/12/11 02:02:45;;;;;;;48.72;22.25;;;;;;;;;;6246917;28;20046;-65
2021/12/11 02:05:48;;;;;;;47.83;22.40;;;;;;;;;;6247491;28;20483;-65
2021/12/11 02:08:51;;;;;;;46.42;20.95;;;;;;;;;;6245249;28;20518;-65
2021/12/11 02:12:03;;;;;;;46.58;21.15;;;;;;;;;;6246858;28;20115;-64
2021/12/11 02:15:08;;;;;;;43.60;22.25;;;;;;;;;;6246878;28;20042;-64
2021/12/11 02:18:14;;;;;;;42.65;21.20;;;;;;;;;;6247660;28;20056;-64
2021/12/11 02:21:20;;;;;;;47.67;21.42;;;;;;;;;;6245945;28;20064;-64
2021/12/11 02:24:26;;;;;;;48.58;21.75;;;;;;;;;;6246070;28;20403;-64
2021/12/11 02:27:37;;;;;;;46.17;20.73;;;;;;;;;;6245960;28;20058;-66
2021/12/11 02:30:43;;;;;;;48.78;22.23;;;;;;;;;;6245821;28;20049;-67
2021/12/11 02:33:51;;;;;;;45.42;20.25;;;;;;;;;;6246731;28;20049;-65
2021/12/11 02:36:56;;;;;;;47.85;20.95;;;;;;;;;;6245155;28;20049;-65
2021/12/11 02:40:07;;;;;;;44.50;20.63;;;;;;;;;;6245555;28;20337;-65
2021/12/11 02:43:12;;;;;;;46.88;20.92;;;;;;;;;;6245609;28;20049;-65
2021/12/11 02:46:17;;;;;;;41.28;19.77;;;;;;;;;;6244158;28;20478;-64
2021/12/11 02:49:24;;;;;;;44.28;19.05;;;;;;;;;;6247092;28;20443;-65
2021/12/11 02:52:32;;;;;;;42.67;20.35;;;;;;;;;;6245260;28;20053;-65
2021/12/11 02:55:38;;;;;;;42.97;19.55;;;;;;;;;;6246043;28;20403;-64
2021/12/11 02:58:42;;;;;;;46.58;19.80;;;;;;;;;;6244529;28;20048;-65
2021/12/11 03:01:48;;;;;;;41.77;19.77;;;;;;;;;;6246315;28;20079;-65
2021/12/11 03:04:56;;;;;;;45.65;20.08;;;;;;;;;;6246613;28;20372;-65
2021/12/11 03:08:01;;;;;;;44.22;20.42;;;;;;;;;;6245333;28;20056;-65
2021/12/11 03:11:07;;;;;;;42.30;21.17;;;;;;;;;;6245931;28;20406;-66
2021/12/11 03:14:12;;;;;;;;;;;;;;;;;;6247508;28;20048;-65
2021/12/11 03:17:15;;;;;;;47.85;21.92;;;;;;;;;;6245652;28;19921;-64
2021/12/11 03:20:20;;;;;;;43.00;19.83;;;;;;;;;;6243687;28;20095;-66
2021/12/11 03:23:23;;;;;;;45.13;20.83;;;;;;;;;;6246228;28;20396;-65
2021/12/11 03:26:28;;;;;;;38.15;19.48;;;;;;;;;;6244689;28;20041;-65
2021/12/11 03:29:31;;;;;;;43.15;20.80;;;;;;;;;;6243789;28;20073;-65
2021/12/11 03:32:37;;;;;;;39.78;19.67;;;;;;;;;;6245823;28;20057;-65
2021/12/11 03:35:41;;;;;;;41.00;19.45;;;;;;;;;;6244439;28;20057;-65
2021/12/11 03:38:48;;;;;;;41.92;20.58;;;;;;;;;;6244104;28;20380;-65
2021/12/11 03:41:54;;;;;;;43.10;20.80;;;;;;;;;;6243719;28;20065;-66
2021/12/11 03:44:58;;;;;;;44.53;21.00;;;;;;;;;;6244486;28;20050;-65
2021/12/11 03:48:07;;;;;;;46.53;20.52;;;;;;;;;;6246315;28;20085;-66
2021/12/11 03:51:16;;;;;;;39.22;18.55;;;;;;;;;;6243330;28;20685;-65
2021/12/11 03:54:21;;;;;;;35.55;17.85;;;;;;;;;;6244661;28;20042;-66
2021/12/11 03:57:27;;;;;;;39.77;18.03;;;;;;;;;;6245613;28;20450;-66
2021/12/11 04:00:32;;;;;;;41.08;19.48;;;;;;;;;;6249932;28;20119;-65
2021/12/11 04:03:36;;;;;;;39.70;18.30;;;;;;;;;;6249614;28;20053;-65
2021/12/11 04:06:42;;;;;;;36.55;18.83;;;;;;;;;;6249139;28;20049;-66
2021/12/11 04:09:48;;;;;;;38.85;17.50;;;;;;;;;;6249016;28;20041;-65
2021/12/11 04:12:52;;;;;;;27.67;12.82;;;;;;;;;;6248117;28;20061;-65
2021/12/11 04:15:55;;;;;;;28.40;13.40;;;;;;;;;;6249894;28;20045;-66
2021/12/11 04:18:58;;;;;;;26.13;12.20;;;;;;;;;;6250361;28;20049;-65
2021/12/11 04:22:05;;;;;;;30.40;13.98;;;;;;;;;;6248673;28;20053;-65
2021/12/11 04:25:09;;;;;;;31.50;15.75;;;;;;;;;;6249095;28;20056;-65
2021/12/11 04:28:18;;;;;;;30.17;14.32;;;;;;;;;;6248611;28;20045;-65
2021/12/11 04:31:20;;;;;;;;;;;;;;;;;;6250411;28;20049;-64
2021/12/11 04:34:24;;;;;;;28.52;13.52;;;;;;;;;;6248694;28;19925;-64
2021/12/11 04:37:31;;;;;;;26.70;12.80;;;;;;;;;;6249509;28;20045;-65
2021/12/11 04:40:37;;;;;;;25.65;12.73;;;;;;;;;;6249836;28;20064;-65
2021/12/11 04:43:42;;;;;;;29.38;13.57;;;;;;;;;;6249159;28;20045;-63
2021/12/11 04:46:45;;;;;;;25.23;13.05;;;;;;;;;;6247556;28;20045;-64
2021/12/11 04:49:54;;;;;;;29.23;13.55;;;;;;;;;;6247975;28;20412;-64
2021/12/11 04:53:00;;;;;;;26.15;12.73;;;;;;;;;;6249282;28;20475;-65
2021/12/11 04:56:24;;;;;;;23.63;11.95;;;;;;;;;;6248284;28;20045;-63
2021/12/11 04:59:44;;;;;;;23.52;10.98;;;;;;;;;;6248646;28;20065;-65
2021/12/11 05:06:25;;;;;;;26.25;11.98;;;;;;;;;;6218241;28;20496;-64
2021/12/11 05:09:36;;;;;;;23.90;11.65;;;;;;;;;;6247774;28;20041;-64
2021/12/11 05:12:39;;;;;;;23.77;12.05;;;;;;;;;;6248521;28;20399;-64
2021/12/11 05:15:45;;;;;;;25.13;13.20;;;;;;;;;;6247588;28;20046;-63
2021/12/11 05:18:48;;;;;;;;;;;;;;;;;;6249246;28;20111;-64
2021/12/11 05:21:51;;;;;;;28.50;12.57;;;;;;;;;;6247300;28;19963;-65
2021/12/11 05:24:57;;;;;;;29.98;12.90;;;;;;;;;;6248378;28;20056;-65
2021/12/11 05:28:00;;;;;;;;;;;;;;;;;;6247673;28;20524;-64
2021/12/11 05:31:05;;;;;;;24.10;11.70;;;;;;;;;;6247852;28;19920;-64
2021/12/11 05:34:11;;;;;;;27.98;12.93;;;;;;;;;;6247711;28;20076;-64
2021/12/11 05:37:14;;;;;;;25.35;12.07;;;;;;;;;;6246840;28;20354;-64
2021/12/11 05:40:18;;;;;;;26.33;12.63;;;;;;;;;;6248403;28;20045;-64
2021/12/11 05:43:21;;;;;;;23.95;11.55;;;;;;;;;;6247778;28;20045;-65
2021/12/11 05:46:26;;;;;;;28.17;13.60;;;;;;;;;;6247886;28;20103;-64
2021/12/11 05:49:30;;;;;;;26.43;12.37;;;;;;;;;;6247660;28;20042;-66
2021/12/11 05:52:33;;;;;;;24.23;12.38;;;;;;;;;;6245928;28;20139;-65
2021/12/11 05:55:37;;;;;;;27.65;13.38;;;;;;;;;;6246125;28;20308;-66
2021/12/11 05:58:56;;;;;;;28.75;14.00;;;;;;;;;;6247596;28;20042;-65
2021/12/11 06:02:06;;;;;;;30.08;13.75;;;;;;;;;;6246419;28;20049;-64
2021/12/11 06:05:09;;;;;;;26.60;12.25;;;;;;;;;;6246506;28;20041;-64
2021/12/11 06:08:13;;;;;;;23.73;12.57;;;;;;;;;;6247780;28;20049;-64
2021/12/11 06:11:16;;;;;;;28.48;13.05;;;;;;;;;;6246161;28;20049;-66
2021/12/11 06:14:20;;;;;;;24.35;12.75;;;;;;;;;;6246816;28;20049;-65
2021/12/11 06:17:27;;;;;;;23.00;11.43;;;;;;;;;;6246829;28;20045;-64
2021/12/11 06:20:33;;;;;;;21.95;11.07;;;;;;;;;;6246554;28;20140;-64
2021/12/11 06:23:42;;;;;;;24.58;11.13;;;;;;;;;;6243642;28;20502;-64
2021/12/11 06:26:46;;;;;;;26.10;11.95;;;;;;;;;;6244468;28;20052;-66
2021/12/11 06:29:49;;;;;;;26.02;11.40;;;;;;;;;;6245226;28;20045;-65
2021/12/11 06:32:57;;;;;;;24.42;11.27;;;;;;;;;;6245123;28;20115;-65
2021/12/11 06:36:01;;;;;;;21.70;10.38;;;;;;;;;;6244046;28;20052;-65
2021/12/11 06:39:05;;;;;;;23.13;10.60;;;;;;;;;;6243237;28;20049;-66
2021/12/11 06:42:11;;;;;;;25.38;11.25;;;;;;;;;;6243648;28;20164;-66
2021/12/11 06:45:14;;;;;;;22.23;11.05;;;;;;;;;;6244482;28;20048;-66
2021/12/11 06:48:18;;;;;;;21.77;10.65;;;;;;;;;;6242769;28;20176;-66
2021/12/11 06:51:24;;;;;;;20.73;10.90;;;;;;;;;;6245118;28;20045;-65
2021/12/11 06:54:27;;;;;;;22.15;10.88;;;;;;;;;;6243439;28;20053;-65
2021/12/11 06:57:30;;;;;;;18.90;9.65;;;;;;;;;;6243433;28;20045;-65
2021/12/11 07:00:33;;;;;;;20.05;9.35;;;;;;;;;;6244322;28;20049;-66
2021/12/11 07:03:40;;;;;;;14.90;7.75;;;;;;;;;;6243166;28;20065;-65
2021/12/11 07:06:45;;;;;;;20.20;9.18;;;;;;;;;;6242590;28;20072;-65
2021/12/11 07:09:49;;;;;;;18.70;9.00;;;;;;;;;;6242618;28;20038;-66
2021/12/11 07:12:52;;;;;;;18.30;8.35;;;;;;;;;;6244389;28;20046;-65
2021/12/11 07:15:57;;;;;;;17.87;9.07;;;;;;;;;;6242834;28;20050;-66
2021/12/11 07:19:02;;;;;;;16.98;7.82;;;;;;;;;;6243077;28;20128;-64
2021/12/11 07:22:07;;;;;;;17.67;8.43;;;;;;;;;;6243854;28;20664;-64
2021/12/11 07:25:12;;;;;;;17.85;9.23;;;;;;;;;;6242950;28;20590;-65
2021/12/11 07:28:16;;;;;;;13.80;6.80;;;;;;;;;;6244147;28;20518;-65
2021/12/11 07:31:19;;;;;;;14.00;7.40;;;;;;;;;;6243495;28;20446;-64
2021/12/11 07:34:26;;;;;;;17.00;7.68;;;;;;;;;;6243502;28;20045;-67
2021/12/11 07:37:29;;;;;;;18.20;8.65;;;;;;;;;;6243441;28;20403;-67
2021/12/11 07:40:36;;;;;;;14.90;8.25;;;;;;;;;;6242813;28;20136;-67
2021/12/11 07:43:40;;;;;;;14.07;7.57;;;;;;;;;;6242321;28;20114;-67
2021/12/11 07:46:43;;;;;;;15.90;8.27;;;;;;;;;;6242541;28;20049;-67
2021/12/11 07:49:50;;;;;;;14.13;6.95;;;;;;;;;;6242960;28;20050;-67
2021/12/11 07:52:56;;;;;;;14.45;6.53;;;;;;;;;;6241919;28;20041;-66
2021/12/11 07:55:59;;;;;;;16.25;7.20;;;;;;;;;;6242681;28;20164;-68
2021/12/11 07:59:04;;;;;;;14.18;7.35;;;;;;;;;;6243244;28;20037;-67
2021/12/11 08:02:07;;;;;;;16.05;7.95;;;;;;;;;;6242544;28;20549;-68
2021/12/11 08:05:11;;;;;;;11.82;5.82;;;;;;;;;;6243395;28;20048;-68
2021/12/11 08:08:15;;;;;;;12.35;6.03;;;;;;;;;;6242295;28;20045;-68
2021/12/11 08:11:19;;;;;;;14.13;6.38;;;;;;;;;;6242739;28;20049;-68
2021/12/11 08:14:23;;;;;;;11.98;5.80;;;;;;;;;;6241637;28;20045;-68
2021/12/11 08:17:29;;;;;;;12.55;6.68;;;;;;;;;;6243433;28;20050;-68
2021/12/11 08:20:34;;;;;;;12.93;6.65;;;;;;;;;;6242343;28;20140;-68
2021/12/11 08:23:43;;;;;;;10.10;5.28;;;;;;;;;;6239445;28;20462;-68
2021/12/11 08:26:47;;;;;;;10.82;5.45;;;;;;;;;;6241706;28;20243;-68
2021/12/11 08:29:52;;;;;;;12.93;6.45;;;;;;;;;;6242004;28;20052;-68
2021/12/11 08:32:55;;;;;;;11.13;6.10;;;;;;;;;;6239863;28;20052;-68
2021/12/11 08:36:00;;;;;;;11.07;5.75;;;;;;;;;;6240980;28;20064;-68
2021/12/11 08:39:05;;;;;;;11.63;5.85;;;;;;;;;;6240574;28;20207;-67
2021/12/11 08:42:10;;;;;;;11.30;6.53;;;;;;;;;;6241565;28;20041;-68
2021/12/11 08:45:22;;;;;;;11.40;5.78;;;;;;;;;;6240143;28;20087;-67
2021/12/11 08:48:26;;;;;;;11.73;6.00;;;;;;;;;;6245849;28;20045;-67
2021/12/11 08:51:34;;;;;;;10.82;5.53;;;;;;;;;;6246002;28;20045;-67
2021/12/11 08:54:38;;;;;;;13.82;6.80;;;;;;;;;;6244074;28;20553;-68
2021/12/11 08:57:41;;;;;;;11.93;6.20;;;;;;;;;;6243608;28;20065;-68
2021/12/11 09:00:47;;;;;;;13.30;6.22;;;;;;;;;;6244733;28;20041;-67
2021/12/11 09:03:52;;;;;;;10.40;5.97;;;;;;;;;;6244276;28;20045;-67
2021/12/11 09:06:59;;;;;;;11.23;5.60;;;;;;;;;;6243197;28;20052;-66
2021/12/11 09:10:05;;;;;;;13.90;6.55;;;;;;;;;;6244229;28;20492;-67
2021/12/11 09:13:13;;;;;;;10.02;5.60;;;;;;;;;;6245659;28;20479;-66
2021/12/11 09:16:17;;;;;;;11.40;6.00;;;;;;;;;;6244880;28;20064;-69
2021/12/11 09:19:26;;;;;;;11.60;6.05;;;;;;;;;;6242789;28;20110;-67
2021/12/11 09:22:32;;;;;;;11.68;6.38;;;;;;;;;;6245383;28;20115;-68
2021/12/11 09:25:41;;;;;;;9.00;4.90;;;;;;;;;;6245092;28;20049;-68
2021/12/11 09:28:48;;;;;;;9.60;5.50;;;;;;;;;;6244238;28;20052;-68
2021/12/11 09:31:58;;;;;;;10.13;5.82;;;;;;;;;;6244672;28;20057;-67
2021/12/11 09:35:05;;;;;;;9.52;5.35;;;;;;;;;;6245147;28;20125;-67
2021/12/11 09:38:14;;;;;;;9.85;4.97;;;;;;;;;;6244506;28;20058;-67
2021/12/11 09:41:24;;;;;;;10.93;5.93;;;;;;;;;;6243833;28;20049;-67
2021/12/11 09:44:30;;;;;;;8.88;4.90;;;;;;;;;;6244763;28;20049;-68
2021/12/11 09:47:36;;;;;;;9.95;4.80;;;;;;;;;;6245183;28;20264;-68
2021/12/11 09:50:45;;;;;;;;;;;;;;;;;;6244250;28;20407;-67
2021/12/11 09:53:50;;;;;;;11.90;5.40;;;;;;;;;;6242527;28;20294;-68
2021/12/11 09:56:57;;;;;;;11.00;5.63;;;;;;;;;;6244150;28;20481;-67
2021/12/11 10:00:04;;;;;;;10.00;5.50;;;;;;;;;;6244194;28;20049;-67
2021/12/11 10:03:17;;;;;;;9.60;5.40;;;;;;;;;;6243281;28;20502;-67
2021/12/11 10:06:38;;;;;;;9.73;6.28;;;;;;;;;;6242644;28;20128;-68
2021/12/11 10:09:46;;;;;;;66.35;31.23;;;;;;;;;;6242775;28;20048;-67
2021/12/11 10:12:50;;;;;;;10.80;5.78;;;;;;;;;;6242555;28;20053;-67
2021/12/11 10:15:57;;;;;;;9.38;5.80;;;;;;;;;;6242016;28;20045;-67
2021/12/11 10:19:03;;;;;;;9.48;4.78;;;;;;;;;;6242325;28;20168;-69
2021/12/11 10:22:09;;;;;;;10.57;5.72;;;;;;;;;;6243546;28;20431;-68
2021/12/11 10:25:12;;;;;;;;;;;;;;;;;;6243404;28;20046;-68
2021/12/11 10:28:18;;;;;;;11.35;5.45;;;;;;;;;;6243369;28;19928;-68
2021/12/11 10:31:23;;;;;;;11.93;5.82;;;;;;;;;;6243903;28;20657;-68
2021/12/11 10:34:29;;;;;;;12.18;6.68;;;;;;;;;;6243265;28;20049;-67
2021/12/11 10:37:35;;;;;;;9.38;6.03;;;;;;;;;;6242311;28;20069;-67
2021/12/11 10:40:40;;;;;;;11.05;6.35;;;;;;;;;;6242119;28;20091;-68
2021/12/11 10:43:46;;;;;;;12.20;6.65;;;;;;;;;;6242085;28;20052;-68
2021/12/11 10:46:52;;;;;;;13.38;7.32;;;;;;;;;;6242516;28;20087;-67
2021/12/11 10:49:55;;;;;;;14.27;6.78;;;;;;;;;;6241242;28;20052;-67
2021/12/11 10:52:59;;;;;;;13.30;6.65;;;;;;;;;;6243500;28;20050;-68
2021/12/11 10:56:04;;;;;;;12.50;6.38;;;;;;;;;;6241457;28;20045;-68
2021/12/11 10:59:09;;;;;;;41.05;24.02;;;;;;;;;;6241814;28;20483;-67
2021/12/11 11:02:15;;;;;;;13.15;6.55;;;;;;;;;;6241599;28;20124;-67
2021/12/11 11:05:19;;;;;;;12.07;6.70;;;;;;;;;;6242891;28;20068;-67
2021/12/11 11:08:22;;;;;;;13.88;7.15;;;;;;;;;;6240238;28;20047;-67
2021/12/11 11:11:28;;;;;;;11.63;6.40;;;;;;;;;;6241036;28;20471;-67
2021/12/11 11:14:32;;;;;;;12.43;6.85;;;;;;;;;;6243075;28;20052;-68
2021/12/11 11:17:37;;;;;;;10.98;6.60;;;;;;;;;;6242364;28;20041;-67
2021/12/11 11:20:45;;;;;;;14.00;6.82;;;;;;;;;;6240106;28;20192;-68
2021/12/11 11:23:48;;;;;;;11.65;6.43;;;;;;;;;;6241857;28;20083;-68
2021/12/11 11:26:51;;;;;;;14.57;7.63;;;;;;;;;;6242929;28;20053;-68
2021/12/11 11:29:55;;;;;;;13.13;7.18;;;;;;;;;;6240181;28;20516;-67
2021/12/11 11:32:59;;;;;;;12.75;6.28;;;;;;;;;;6240953;28;20132;-68
2021/12/11 11:36:04;;;;;;;12.57;6.88;;;;;;;;;;6241420;28;20064;-68
2021/12/11 11:39:10;;;;;;;13.25;6.68;;;;;;;;;;6240529;28;20119;-67
2021/12/11 11:42:19;;;;;;;12.10;7.35;;;;;;;;;;6241372;28;20049;-67
2021/12/11 11:45:22;;;;;;;16.27;8.23;;;;;;;;;;6242421;28;20502;-67
2021/12/11 11:48:27;;;;;;;14.23;7.65;;;;;;;;;;6242347;28;20056;-68
2021/12/11 11:51:45;;;;;;;20.90;10.18;;;;;;;;;;6239952;28;20542;-68
2021/12/11 11:54:49;;;;;;;14.77;8.23;;;;;;;;;;6240530;28;20061;-68
2021/12/11 11:57:53;;;;;;;14.30;7.93;;;;;;;;;;6241149;28;20472;-67
2021/12/11 12:00:58;;;;;;;12.30;6.97;;;;;;;;;;6240700;28;20042;-67
2021/12/11 12:04:02;;;;;;;13.30;6.97;;;;;;;;;;6241196;28;20049;-68
2021/12/11 12:07:06;;;;;;;13.32;7.75;;;;;;;;;;6240277;28;20053;-67
2021/12/11 12:10:12;;;;;;;14.23;7.38;;;;;;;;;;6242121;28;20139;-68
2021/12/11 12:13:19;;;;;;;14.98;7.40;;;;;;;;;;6241349;28;20400;-67
2021/12/11 12:16:22;;;;;;;14.32;7.13;;;;;;;;;;6240409;28;20142;-67
2021/12/11 12:19:27;;;;;;;12.43;7.38;;;;;;;;;;6241499;28;20065;-67
2021/12/11 12:22:30;;;;;;;12.83;6.87;;;;;;;;;;6247007;28;20183;-68
2021/12/11 12:25:33;;;;;;;15.65;7.40;;;;;;;;;;6245684;28;20049;-68
2021/12/11 12:28:36;;;;;;;12.38;6.55;;;;;;;;;;6246314;28;20128;-69
2021/12/11 12:31:45;;;;;;;12.32;6.22;;;;;;;;;;6246598;28;20049;-69
2021/12/11 12:34:51;;;;;;;15.13;8.25;;;;;;;;;;6245548;28;20052;-68
2021/12/11 12:37:55;;;;;;;14.52;7.22;;;;;;;;;;6244802;28;20068;-68
2021/12/11 12:41:00;;;;;;;12.43;6.85;;;;;;;;;;6246528;28;20172;-69
2021/12/11 12:44:19;;;;;;;16.10;7.80;;;;;;;;;;6244727;28;20100;-68
2021/12/11 12:47:39;;;;;;;17.35;7.88;;;;;;;;;;6245240;28;20160;-68
2021/12/11 12:50:46;;;;;;;13.85;7.10;;;;;;;;;;6246017;28;20498;-68
2021/12/11 12:53:49;;;;;;;17.48;8.30;;;;;;;;;;6245031;28;20551;-69
2021/12/11 12:56:54;;;;;;;14.70;7.65;;;;;;;;;;6244134;28;20050;-68
2021/12/11 13:00:02;;;;;;;16.40;8.25;;;;;;;;;;6245044;28;20455;-68
2021/12/11 13:03:07;;;;;;;14.68;8.00;;;;;;;;;;6245803;28;20049;-69
2021/12/11 13:06:14;;;;;;;15.32;7.93;;;;;;;;;;6241526;28;21156;-68
2021/12/11 13:09:19;;;;;;;16.35;8.80;;;;;;;;;;6224843;28;20125;-68
2021/12/11 13:12:23;;;;;;;16.33;8.55;;;;;;;;;;6243600;28;20495;-68
2021/12/11 13:15:32;;;;;;;16.73;8.65;;;;;;;;;;6245053;28;20041;-69
2021/12/11 13:18:35;;;;;;;;;;;;;;;;;;6243166;28;20060;-68
2021/12/11 13:21:41;;;;;;;17.80;9.30;;;;;;;;;;6244286;28;19921;-68
2021/12/11 13:24:48;;;;;;;20.58;10.43;;;;;;;;;;6245539;28;20049;-69
2021/12/11 13:27:53;;;;;;;19.08;10.38;;;;;;;;;;6244012;28;20072;-68
2021/12/11 13:30:58;;;;;;;18.88;9.45;;;;;;;;;;6242390;28;20046;-69
2021/12/11 13:34:05;;;;;;;18.33;9.15;;;;;;;;;;6244995;28;20078;-69
2021/12/11 13:37:14;;;;;;;18.00;8.65;;;;;;;;;;6244909;28;20053;-69
2021/12/11 13:40:18;;;;;;;20.08;9.30;;;;;;;;;;6243168;28;20041;-69
2021/12/11 13:43:21;;;;;;;20.42;8.98;;;;;;;;;;6244084;28;20128;-68
2021/12/11 13:46:27;;;;;;;18.35;9.38;;;;;;;;;;6245548;28;20492;-69
2021/12/11 13:49:32;;;;;;;20.10;10.35;;;;;;;;;;6243460;28;20072;-68
2021/12/11 13:52:36;;;;;;;151.85;79.65;;;;;;;;;;6243778;28;20403;-68
2021/12/11 13:55:40;;;;;;;24.50;13.20;;;;;;;;;;6243148;28;20511;-68
2021/12/11 13:58:43;;;;;;;21.20;10.68;;;;;;;;;;6243620;28;20052;-70
2021/12/11 14:01:46;;;;;;;25.10;10.38;;;;;;;;;;6242799;28;20033;-70
2021/12/11 14:04:49;;;;;;;19.65;10.52;;;;;;;;;;6241689;28;20380;-69
2021/12/11 14:07:56;;;;;;;25.25;11.73;;;;;;;;;;6243951;28;20037;-68
2021/12/11 14:11:03;;;;;;;23.02;11.35;;;;;;;;;;6242199;28;20037;-68
2021/12/11 14:14:07;;;;;;;22.45;11.50;;;;;;;;;;6241142;28;20061;-69
2021/12/11 14:17:11;;;;;;;21.15;10.13;;;;;;;;;;6240976;28;20048;-68
2021/12/11 14:20:20;;;;;;;21.42;10.45;;;;;;;;;;6242527;28;20496;-68
2021/12/11 14:23:26;;;;;;;27.15;11.38;;;;;;;;;;6241010;28;20041;-68
2021/12/11 14:26:30;;;;;;;24.25;10.73;;;;;;;;;;6240260;28;20484;-68
2021/12/11 14:29:36;;;;;;;20.98;9.85;;;;;;;;;;6242136;28;20403;-68
2021/12/11 14:32:43;;;;;;;21.13;10.13;;;;;;;;;;6240986;28;20428;-67
2021/12/11 14:35:48;;;;;;;21.77;10.07;;;;;;;;;;6241240;28;20056;-66
2021/12/11 14:38:53;;;;;;;25.40;11.27;;;;;;;;;;6242026;28;20045;-67
2021/12/11 14:41:56;;;;;;;22.23;11.18;;;;;;;;;;6241461;28;20049;-67
2021/12/11 14:45:04;;;;;;;24.67;10.90;;;;;;;;;;6240489;28;20049;-68
2021/12/11 14:48:08;;;;;;;24.02;11.98;;;;;;;;;;6239261;28;20306;-67
2021/12/11 14:51:13;;;;;;;23.27;11.40;;;;;;;;;;6239865;28;20056;-68
2021/12/11 14:54:18;;;;;;;26.42;11.90;;;;;;;;;;6240797;28;20091;-68
2021/12/11 14:57:23;;;;;;;26.10;11.75;;;;;;;;;;6240024;28;20127;-68
2021/12/11 15:00:29;;;;;;;26.63;13.13;;;;;;;;;;6242945;28;20049;-68
2021/12/11 15:03:32;;;;;;;23.55;11.88;;;;;;;;;;6243393;28;20153;-69
2021/12/11 15:06:37;;;;;;;24.95;13.30;;;;;;;;;;6242397;28;20492;-68
2021/12/11 15:09:42;;;;;;;23.50;12.43;;;;;;;;;;6241144;28;20069;-68
2021/12/11 15:12:49;;;;;;;25.63;12.68;;;;;;;;;;6241481;28;20054;-67
2021/12/11 15:15:53;;;;;;;26.75;13.45;;;;;;;;;;6241402;28;20398;-68
2021/12/11 15:18:59;;;;;;;25.48;13.93;;;;;;;;;;6241917;28;20041;-68
2021/12/11 15:22:02;;;;;;;22.77;12.65;;;;;;;;;;6242280;28;20069;-68
2021/12/11 15:25:08;;;;;;;24.85;13.70;;;;;;;;;;6242934;28;20095;-67
2021/12/11 15:28:11;;;;;;;27.52;14.05;;;;;;;;;;6241920;28;20128;-68
2021/12/11 15:31:20;;;;;;;24.88;14.05;;;;;;;;;;6240745;28;20399;-67
2021/12/11 15:34:27;;;;;;;24.95;14.05;;;;;;;;;;6243214;28;20053;-69
2021/12/11 15:37:30;;;;;;;30.27;14.57;;;;;;;;;;6242646;28;20045;-68
2021/12/11 15:40:34;;;;;;;23.88;12.43;;;;;;;;;;6241517;28;20046;-68
2021/12/11 15:43:38;;;;;;;27.83;13.95;;;;;;;;;;6241176;28;20049;-68
2021/12/11 15:46:42;;;;;;;24.05;12.95;;;;;;;;;;6242525;28;20428;-68
2021/12/11 15:49:45;;;;;;;27.48;14.52;;;;;;;;;;6241544;28;20050;-68
2021/12/11 15:52:48;;;;;;;25.48;13.65;;;;;;;;;;6241812;28;20048;-68
2021/12/11 15:55:53;;;;;;;27.50;13.77;;;;;;;;;;6246459;28;20391;-68
2021/12/11 15:58:56;;;;;;;29.73;15.82;;;;;;;;;;6246988;28;20047;-69
2021/12/11 16:02:03;;;;;;;31.10;15.30;;;;;;;;;;6244997;28;20049;-68
2021/12/11 16:05:07;;;;;;;32.63;15.65;;;;;;;;;;6245883;28;20046;-67
2021/12/11 16:08:10;;;;;;;29.30;15.30;;;;;;;;;;6247217;28;20045;-67
2021/12/11 16:11:16;;;;;;;29.65;15.38;;;;;;;;;;6246238;28;20073;-68
2021/12/11 16:14:21;;;;;;;29.85;15.80;;;;;;;;;;6245150;28;20048;-68
2021/12/11 16:17:24;;;;;;;34.38;17.58;;;;;;;;;;6247221;28;20050;-68
2021/12/11 16:20:28;;;;;;;42.45;20.02;;;;;;;;;;6246170;28;20045;-68
2021/12/11 16:23:40;;;;;;;40.17;19.23;;;;;;;;;;6245988;28;20045;-68
2021/12/11 16:26:45;;;;;;;32.42;17.85;;;;;;;;;;6246509;28;20049;-68
2021/12/11 16:29:51;;;;;;;26.05;14.45;;;;;;;;;;6246677;28;20389;-68
2021/12/11 16:32:56;;;;;;;28.75;14.55;;;;;;;;;;6244532;28;20045;-67
2021/12/11 16:35:59;;;;;;;28.73;15.25;;;;;;;;;;6244849;28;20380;-68
2021/12/11 16:39:06;;;;;;;25.67;14.88;;;;;;;;;;6246795;28;20045;-67
2021/12/11 16:42:30;;;;;;;29.60;16.40;;;;;;;;;;6244597;28;20523;-67
2021/12/11 16:45:35;;;;;;;32.00;15.90;;;;;;;;;;6245317;28;20045;-67
2021/12/11 16:48:40;;;;;;;33.40;16.92;;;;;;;;;;6246080;28;20052;-67
2021/12/11 16:51:48;;;;;;;32.47;16.17;;;;;;;;;;6244904;28;20057;-68
2021/12/11 16:54:54;;;;;;;27.23;14.60;;;;;;;;;;6245332;28;20041;-67
2021/12/11 16:57:57;;;;;;;27.70;14.73;;;;;;;;;;6243208;28;20413;-66
2021/12/11 17:01:04;;;;;;;32.63;15.50;;;;;;;;;;6243894;28;20045;-67
2021/12/11 17:04:11;;;;;;;29.58;14.63;;;;;;;;;;6244479;28;20103;-66
2021/12/11 17:07:13;;;;;;;27.40;14.20;;;;;;;;;;6242403;28;20057;-68
2021/12/11 17:10:20;;;;;;;28.05;14.82;;;;;;;;;;6243518;28;20049;-68
2021/12/11 17:13:24;;;;;;;30.33;15.23;;;;;;;;;;6244939;28;20120;-67
2021/12/11 17:16:28;;;;;;;27.50;13.90;;;;;;;;;;6241710;28;20041;-67
2021/12/11 17:19:33;;;;;;;34.33;15.30;;;;;;;;;;6242363;28;20042;-67
2021/12/11 17:22:42;;;;;;;29.20;15.45;;;;;;;;;;6244680;28;20072;-67
2021/12/11 17:25:51;;;;;;;28.48;15.20;;;;;;;;;;6243113;28;20056;-67
2021/12/11 17:28:57;;;;;;;30.63;15.35;;;;;;;;;;6244493;28;20049;-67
2021/12/11 17:32:02;;;;;;;27.92;14.85;;;;;;;;;;6243351;28;20056;-67
2021/12/11 17:35:09;;;;;;;33.95;16.45;;;;;;;;;;6241220;28;20042;-68
2021/12/11 17:38:12;;;;;;;27.73;14.60;;;;;;;;;;6240451;28;20069;-66
2021/12/11 17:41:17;;;;;;;29.55;15.25;;;;;;;;;;6241871;28;20195;-67
2021/12/11 17:44:20;;;;;;;29.15;15.77;;;;;;;;;;6241598;28;20049;-66
2021/12/11 17:47:25;;;;;;;29.77;15.60;;;;;;;;;;6243960;28;20048;-68
2021/12/11 17:50:29;;;;;;;31.73;16.27;;;;;;;;;;6243820;28;20049;-67
2021/12/11 17:53:33;;;;;;;30.67;15.95;;;;;;;;;;6243177;28;20052;-68
2021/12/11 17:56:37;;;;;;;27.70;14.27;;;;;;;;;;6243562;28;20052;-67
2021/12/11 17:59:58;;;;;;;30.30;15.52;;;;;;;;;;6244076;28;20056;-69
2021/12/11 18:03:01;;;;;;;26.90;13.30;;;;;;;;;;6243661;28;20459;-68
2021/12/11 18:06:06;;;;;;;32.08;14.93;;;;;;;;;;6243031;28;20046;-66
2021/12/11 18:09:10;;;;;;;25.60;13.60;;;;;;;;;;6244216;28;20046;-67
2021/12/11 18:12:17;;;;;;;27.40;13.13;;;;;;;;;;6241964;28;20046;-66